createdAt,value
2016-07-09T00:00:43.646Z,64.5
2016-07-09T00:01:43.649Z,64.4
2016-07-09T00:02:43.645Z,64.4
2016-07-09T00:03:43.654Z,64.4
2016-07-09T00:04:43.653Z,64.4
2016-07-09T00:05:43.656Z,64.4
2016-07-09T00:06:43.656Z,64.79
2016-07-09T00:07:43.663Z,64.79
2016-07-09T00:08:43.861Z,64.5
2016-07-09T00:09:43.662Z,64.59
2016-07-09T00:10:43.665Z,64.5
2016-07-09T00:11:43.664Z,64.5
2016-07-09T00:12:43.662Z,64.59
2016-07-09T00:13:43.869Z,64.59
2016-07-09T00:14:43.673Z,64.59
2016-07-09T00:15:43.671Z,64.56
2016-07-09T00:16:43.672Z,64.47
2016-07-09T00:17:43.675Z,64.76
2016-07-09T00:18:43.677Z,64.66
2016-07-09T00:19:43.685Z,64.47
2016-07-09T00:20:43.692Z,64.66
2016-07-09T00:21:43.739Z,64.47
2016-07-09T00:22:43.678Z,64.47
2016-07-09T00:23:43.687Z,64.69
2016-07-09T00:24:43.687Z,64.76
2016-07-09T00:25:43.692Z,64.47
2016-07-09T00:26:43.691Z,64.56
2016-07-09T00:27:43.689Z,64.47
2016-07-09T00:28:43.890Z,64.56
2016-07-09T00:29:43.697Z,64.56
2016-07-09T00:30:43.698Z,64.66
2016-07-09T00:31:43.702Z,64.76
2016-07-09T00:32:43.705Z,64.66
2016-07-09T00:33:43.700Z,64.76
2016-07-09T00:34:43.701Z,64.66
2016-07-09T00:35:43.724Z,64.66
2016-07-09T00:36:43.708Z,64.56
2016-07-09T00:37:43.712Z,64.76
2016-07-09T00:38:43.727Z,64.85
2016-07-09T00:39:43.716Z,64.76
2016-07-09T00:40:43.714Z,64.76
2016-07-09T00:41:43.721Z,64.85
2016-07-09T00:42:43.718Z,64.76
2016-07-09T00:43:43.726Z,64.66
2016-07-09T00:44:43.722Z,64.76
2016-07-09T00:45:43.726Z,64.76
2016-07-09T00:46:43.727Z,64.56
2016-07-09T00:47:43.730Z,64.85
2016-07-09T00:48:43.730Z,64.66
2016-07-09T00:49:43.730Z,64.95
2016-07-09T00:50:43.734Z,64.66
2016-07-09T00:51:43.734Z,64.66
2016-07-09T00:52:43.740Z,64.85
2016-07-09T00:53:43.738Z,64.66
2016-07-09T00:54:43.739Z,64.56
2016-07-09T00:55:43.739Z,64.27
2016-07-09T00:56:43.738Z,64.95
2016-07-09T00:57:43.746Z,64.76
2016-07-09T00:58:43.946Z,64.76
2016-07-09T00:59:43.748Z,64.85
2016-07-09T01:00:43.749Z,64.85
2016-07-09T01:01:43.753Z,64.76
2016-07-09T01:02:43.755Z,64.76
2016-07-09T01:03:43.754Z,64.76
2016-07-09T01:04:43.759Z,64.76
2016-07-09T01:05:43.755Z,64.66
2016-07-09T01:06:43.760Z,64.56
2016-07-09T01:07:43.967Z,64.56
2016-07-09T01:08:43.762Z,64.37
2016-07-09T01:09:43.763Z,64.47
2016-07-09T01:10:43.770Z,64.47
2016-07-09T01:11:43.769Z,64.56
2016-07-09T01:12:43.767Z,64.56
2016-07-09T01:13:43.774Z,64.56
2016-07-09T01:14:43.774Z,64.66
2016-07-09T01:15:43.771Z,64.56
2016-07-09T01:16:43.776Z,64.66
2016-07-09T01:17:43.775Z,64.56
2016-07-09T01:18:43.781Z,64.47
2016-07-09T01:19:43.787Z,64.56
2016-07-09T01:20:43.782Z,64.66
2016-07-09T01:21:43.831Z,64.66
2016-07-09T01:22:43.782Z,64.76
2016-07-09T01:23:43.787Z,64.76
2016-07-09T01:24:43.792Z,64.56
2016-07-09T01:25:43.791Z,64.66
2016-07-09T01:26:43.793Z,64.76
2016-07-09T01:27:43.795Z,64.56
2016-07-09T01:28:43.793Z,64.76
2016-07-09T01:29:43.801Z,64.66
2016-07-09T01:30:43.800Z,64.76
2016-07-09T01:31:43.800Z,64.66
2016-07-09T01:32:43.805Z,64.85
2016-07-09T01:33:43.806Z,64.85
2016-07-09T01:34:43.805Z,64.76
2016-07-09T01:35:43.809Z,64.76
2016-07-09T01:36:43.805Z,64.76
2016-07-09T01:37:44.015Z,64.82
2016-07-09T01:38:43.819Z,64.95
2016-07-09T01:39:43.814Z,64.85
2016-07-09T01:40:43.817Z,64.66
2016-07-09T01:41:43.814Z,64.85
2016-07-09T01:42:43.816Z,64.72
2016-07-09T01:43:43.813Z,64.37
2016-07-09T01:44:43.818Z,64.82
2016-07-09T01:45:43.837Z,64.63
2016-07-09T01:46:43.829Z,64.76
2016-07-09T01:47:43.820Z,64.63
2016-07-09T01:48:43.825Z,64.53
2016-07-09T01:49:43.823Z,64.63
2016-07-09T01:50:43.829Z,64.85
2016-07-09T01:51:43.831Z,64.56
2016-07-09T01:52:43.830Z,64.82
2016-07-09T01:53:43.839Z,64.72
2016-07-09T01:54:44.037Z,64.66
2016-07-09T01:55:43.835Z,64.72
2016-07-09T01:56:43.839Z,64.82
2016-07-09T01:57:43.852Z,64.72
2016-07-09T01:58:43.840Z,64.82
2016-07-09T01:59:43.839Z,64.63
2016-07-09T02:00:43.844Z,64.82
2016-07-09T02:01:43.845Z,64.82
2016-07-09T02:02:43.844Z,64.82
2016-07-09T02:03:43.845Z,64.72
2016-07-09T02:04:43.844Z,64.92
2016-07-09T02:05:43.852Z,64.53
2016-07-09T02:06:43.849Z,64.34
2016-07-09T02:07:43.856Z,64.92
2016-07-09T02:08:43.853Z,64.63
2016-07-09T02:09:43.855Z,64.53
2016-07-09T02:10:43.855Z,64.82
2016-07-09T02:11:43.854Z,64.82
2016-07-09T02:12:43.852Z,64.53
2016-07-09T02:13:43.860Z,64.72
2016-07-09T02:14:43.855Z,64.82
2016-07-09T02:15:43.859Z,64.82
2016-07-09T02:16:43.867Z,64.72
2016-07-09T02:17:44.065Z,64.72
2016-07-09T02:18:43.867Z,64.72
2016-07-09T02:19:43.873Z,64.72
2016-07-09T02:20:44.069Z,64.82
2016-07-09T02:21:43.871Z,64.72
2016-07-09T02:22:43.879Z,64.92
2016-07-09T02:23:43.870Z,64.72
2016-07-09T02:24:43.874Z,64.63
2016-07-09T02:25:43.876Z,64.82
2016-07-09T02:26:43.874Z,64.72
2016-07-09T02:27:43.877Z,64.72
2016-07-09T02:28:43.885Z,64.72
2016-07-09T02:29:43.881Z,65.01
2016-07-09T02:30:43.876Z,65.01
2016-07-09T02:31:43.898Z,64.63
2016-07-09T02:32:43.885Z,64.92
2016-07-09T02:33:43.888Z,64.63
2016-07-09T02:34:43.885Z,64.92
2016-07-09T02:35:43.889Z,64.82
2016-07-09T02:36:43.894Z,64.92
2016-07-09T02:37:43.884Z,64.92
2016-07-09T02:38:43.892Z,64.82
2016-07-09T02:39:43.892Z,65.01
2016-07-09T02:40:43.894Z,65.3
2016-07-09T02:41:43.897Z,65.4
2016-07-09T02:42:43.900Z,65.11
2016-07-09T02:43:43.903Z,64.72
2016-07-09T02:44:44.118Z,65.01
2016-07-09T02:45:43.903Z,64.92
2016-07-09T02:46:43.902Z,65.11
2016-07-09T02:47:43.908Z,65.3
2016-07-09T02:48:43.907Z,65.4
2016-07-09T02:49:43.917Z,65.01
2016-07-09T02:50:44.109Z,65.01
2016-07-09T02:51:43.915Z,65.11
2016-07-09T02:52:43.914Z,65.3
2016-07-09T02:53:43.918Z,65.11
2016-07-09T02:54:43.916Z,64.63
2016-07-09T02:55:43.918Z,64.63
2016-07-09T02:56:43.922Z,65.01
2016-07-09T02:57:43.933Z,65.4
2016-07-09T02:58:43.921Z,64.72
2016-07-09T02:59:43.923Z,64.72
2016-07-09T03:00:43.921Z,65.3
2016-07-09T03:01:43.923Z,64.43
2016-07-09T03:02:43.926Z,64.34
2016-07-09T03:03:43.926Z,64.43
2016-07-09T03:04:43.931Z,65.2
2016-07-09T03:05:44.133Z,65.2
2016-07-09T03:06:43.933Z,65.3
2016-07-09T03:07:43.935Z,64.63
2016-07-09T03:08:43.935Z,65.3
2016-07-09T03:09:43.935Z,65.4
2016-07-09T03:10:44.136Z,65.27
2016-07-09T03:11:44.137Z,65.3
2016-07-09T03:12:43.937Z,64.82
2016-07-09T03:13:43.936Z,64.72
2016-07-09T03:14:43.941Z,64.59
2016-07-09T03:15:43.941Z,65.01
2016-07-09T03:16:43.942Z,65.3
2016-07-09T03:17:43.948Z,64.63
2016-07-09T03:18:43.946Z,64.63
2016-07-09T03:19:43.952Z,64.82
2016-07-09T03:20:43.954Z,64.72
2016-07-09T03:21:43.949Z,64.92
2016-07-09T03:22:43.956Z,65.11
2016-07-09T03:23:43.951Z,64.92
2016-07-09T03:24:43.956Z,64.92
2016-07-09T03:25:43.954Z,64.92
2016-07-09T03:26:43.953Z,64.92
2016-07-09T03:27:43.957Z,64.92
2016-07-09T03:28:43.954Z,64.92
2016-07-09T03:29:43.957Z,64.89
2016-07-09T03:30:43.963Z,65.2
2016-07-09T03:31:43.976Z,65.01
2016-07-09T03:32:43.959Z,64.92
2016-07-09T03:33:43.964Z,65.01
2016-07-09T03:34:43.963Z,65.01
2016-07-09T03:35:43.970Z,65.11
2016-07-09T03:36:43.967Z,64.89
2016-07-09T03:37:43.967Z,64.89
2016-07-09T03:38:44.177Z,65.17
2016-07-09T03:39:43.967Z,64.98
2016-07-09T03:40:43.976Z,65.08
2016-07-09T03:41:43.974Z,64.89
2016-07-09T03:42:43.974Z,64.89
2016-07-09T03:43:43.971Z,64.92
2016-07-09T03:44:43.978Z,65.08
2016-07-09T03:45:43.979Z,65.08
2016-07-09T03:46:43.980Z,64.89
2016-07-09T03:47:43.978Z,65.01
2016-07-09T03:48:43.981Z,64.98
2016-07-09T03:49:44.180Z,65.08
2016-07-09T03:50:43.987Z,65.17
2016-07-09T03:51:43.986Z,64.98
2016-07-09T03:52:43.986Z,64.98
2016-07-09T03:53:44.187Z,64.79
2016-07-09T03:54:43.983Z,64.98
2016-07-09T03:55:43.988Z,64.89
2016-07-09T03:56:44.191Z,64.89
2016-07-09T03:57:43.991Z,64.69
2016-07-09T03:58:43.991Z,64.89
2016-07-09T03:59:43.991Z,65.17
2016-07-09T04:00:43.992Z,64.79
2016-07-09T04:01:44.195Z,64.69
2016-07-09T04:02:43.990Z,64.89
2016-07-09T04:03:43.998Z,65.17
2016-07-09T04:04:43.996Z,64.98
2016-07-09T04:05:43.996Z,65.08
2016-07-09T04:06:44.000Z,64.79
2016-07-09T04:07:43.998Z,64.89
2016-07-09T04:08:44.001Z,64.79
2016-07-09T04:09:44.204Z,64.79
2016-07-09T04:10:44.005Z,64.79
2016-07-09T04:11:44.213Z,64.89
2016-07-09T04:12:44.212Z,64.79
2016-07-09T04:13:44.005Z,64.89
2016-07-09T04:14:44.008Z,64.98
2016-07-09T04:15:44.011Z,64.79
2016-07-09T04:16:44.008Z,64.69
2016-07-09T04:17:44.014Z,64.79
2016-07-09T04:18:44.008Z,64.79
2016-07-09T04:19:44.014Z,65.27
2016-07-09T04:20:44.017Z,64.89
2016-07-09T04:21:44.016Z,65.17
2016-07-09T04:22:44.023Z,65.37
2016-07-09T04:23:44.019Z,65.27
2016-07-09T04:24:44.016Z,65.27
2016-07-09T04:25:44.023Z,65.27
2016-07-09T04:26:44.024Z,65.17
2016-07-09T04:27:44.022Z,65.17
2016-07-09T04:28:44.022Z,65.27
2016-07-09T04:29:44.225Z,65.08
2016-07-09T04:30:44.025Z,65.08
2016-07-09T04:31:44.027Z,64.98
2016-07-09T04:32:44.021Z,65.47
2016-07-09T04:33:44.030Z,65.08
2016-07-09T04:34:44.031Z,65.37
2016-07-09T04:35:44.030Z,65.27
2016-07-09T04:36:44.031Z,65.27
2016-07-09T04:37:44.032Z,65.37
2016-07-09T04:38:44.036Z,65.27
2016-07-09T04:39:44.033Z,65.27
2016-07-09T04:40:44.039Z,65.37
2016-07-09T04:41:44.032Z,65.27
2016-07-09T04:42:44.038Z,64.98
2016-07-09T04:43:44.037Z,65.27
2016-07-09T04:44:44.244Z,65.17
2016-07-09T04:45:44.039Z,65.27
2016-07-09T04:46:44.042Z,65.27
2016-07-09T04:47:44.042Z,65.08
2016-07-09T04:48:44.042Z,65.17
2016-07-09T04:49:44.046Z,65.37
2016-07-09T04:50:44.047Z,65.66
2016-07-09T04:51:44.044Z,65.17
2016-07-09T04:52:44.045Z,64.98
2016-07-09T04:53:44.049Z,65.47
2016-07-09T04:54:44.051Z,65.37
2016-07-09T04:55:44.250Z,65.47
2016-07-09T04:56:44.051Z,65.47
2016-07-09T04:57:44.050Z,65.27
2016-07-09T04:58:44.053Z,65.56
2016-07-09T04:59:44.050Z,65.37
2016-07-09T05:00:44.054Z,65.17
2016-07-09T05:01:44.262Z,65.17
2016-07-09T05:02:44.055Z,65.27
2016-07-09T05:03:44.058Z,65.17
2016-07-09T05:04:44.058Z,65.17
2016-07-09T05:05:44.069Z,65.47
2016-07-09T05:06:44.064Z,65.27
2016-07-09T05:07:44.057Z,65.17
2016-07-09T05:08:44.063Z,65.37
2016-07-09T05:09:44.062Z,65.37
2016-07-09T05:10:44.064Z,65.37
2016-07-09T05:11:44.063Z,65.17
2016-07-09T05:12:44.064Z,65.37
2016-07-09T05:13:44.062Z,65.27
2016-07-09T05:14:44.067Z,65.17
2016-07-09T05:15:44.068Z,64.79
2016-07-09T05:16:44.067Z,64.98
2016-07-09T05:17:44.071Z,64.89
2016-07-09T05:18:44.074Z,64.98
2016-07-09T05:19:44.070Z,64.89
2016-07-09T05:20:44.075Z,64.98
2016-07-09T05:21:44.073Z,64.98
2016-07-09T05:22:44.076Z,64.79
2016-07-09T05:23:44.079Z,64.98
2016-07-09T05:24:44.076Z,64.79
2016-07-09T05:25:44.073Z,64.79
2016-07-09T05:26:44.077Z,64.89
2016-07-09T05:27:44.281Z,64.79
2016-07-09T05:28:44.078Z,64.79
2016-07-09T05:29:44.086Z,64.69
2016-07-09T05:30:44.081Z,64.89
2016-07-09T05:31:44.082Z,65.17
2016-07-09T05:32:44.088Z,64.79
2016-07-09T05:33:44.087Z,64.98
2016-07-09T05:34:44.091Z,64.98
2016-07-09T05:35:44.085Z,64.98
2016-07-09T05:36:44.087Z,64.89
2016-07-09T05:37:44.088Z,64.89
2016-07-09T05:38:44.089Z,65.17
2016-07-09T05:39:44.088Z,64.89
2016-07-09T05:40:44.087Z,65.08
2016-07-09T05:41:44.090Z,64.79
2016-07-09T05:42:44.092Z,64.89
2016-07-09T05:43:44.096Z,64.89
2016-07-09T05:44:44.093Z,64.89
2016-07-09T05:45:44.095Z,64.89
2016-07-09T05:46:44.091Z,64.79
2016-07-09T05:47:44.095Z,65.08
2016-07-09T05:48:44.102Z,64.89
2016-07-09T05:49:44.112Z,64.89
2016-07-09T05:50:44.097Z,64.89
2016-07-09T05:51:44.096Z,64.79
2016-07-09T05:52:44.103Z,64.89
2016-07-09T05:53:44.104Z,64.69
2016-07-09T05:54:44.116Z,64.89
2016-07-09T05:55:44.114Z,64.79
2016-07-09T05:56:44.102Z,64.98
2016-07-09T05:57:44.105Z,64.89
2016-07-09T05:58:44.101Z,64.86
2016-07-09T05:59:44.107Z,64.79
2016-07-09T06:00:44.105Z,64.89
2016-07-09T06:01:44.109Z,64.95
2016-07-09T06:02:44.107Z,64.79
2016-07-09T06:03:44.112Z,64.59
2016-07-09T06:04:44.112Z,64.89
2016-07-09T06:05:44.111Z,64.89
2016-07-09T06:06:44.115Z,64.66
2016-07-09T06:07:44.114Z,64.89
2016-07-09T06:08:44.118Z,65.27
2016-07-09T06:09:44.116Z,64.89
2016-07-09T06:10:44.116Z,65.17
2016-07-09T06:11:44.117Z,64.69
2016-07-09T06:12:44.118Z,64.79
2016-07-09T06:13:44.117Z,65.37
2016-07-09T06:14:44.121Z,64.79
2016-07-09T06:15:44.124Z,65.27
2016-07-09T06:16:44.123Z,64.4
2016-07-09T06:17:44.122Z,65.27
2016-07-09T06:18:44.125Z,64.4
2016-07-09T06:19:44.125Z,65.27
2016-07-09T06:20:44.117Z,64.4
2016-07-09T06:21:44.123Z,64.69
2016-07-09T06:22:44.125Z,64.59
2016-07-09T06:23:44.125Z,65.27
2016-07-09T06:24:44.129Z,65.08
2016-07-09T06:25:44.130Z,64.59
2016-07-09T06:26:44.136Z,65.37
2016-07-09T06:27:44.335Z,65.08
2016-07-09T06:28:44.133Z,65.27
2016-07-09T06:29:44.134Z,65.17
2016-07-09T06:30:44.335Z,65.27
2016-07-09T06:31:44.136Z,65.27
2016-07-09T06:32:44.133Z,65.27
2016-07-09T06:33:44.130Z,64.59
2016-07-09T06:34:44.134Z,64.79
2016-07-09T06:35:44.337Z,65.37
2016-07-09T06:36:44.342Z,65.27
2016-07-09T06:37:44.139Z,64.69
2016-07-09T06:38:44.136Z,64.59
2016-07-09T06:39:44.141Z,65.08
2016-07-09T06:40:44.144Z,65.27
2016-07-09T06:41:44.141Z,65.37
2016-07-09T06:42:44.145Z,65.27
2016-07-09T06:43:44.144Z,64.59
2016-07-09T06:44:44.148Z,65.27
2016-07-09T06:45:44.146Z,64.69
2016-07-09T06:46:44.145Z,65.08
2016-07-09T06:47:44.151Z,65.17
2016-07-09T06:48:44.146Z,65.27
2016-07-09T06:49:44.149Z,64.69
2016-07-09T06:50:44.147Z,64.59
2016-07-09T06:51:44.554Z,64.98
2016-07-09T06:52:44.157Z,64.69
2016-07-09T06:53:44.351Z,64.5
2016-07-09T06:54:44.151Z,64.5
2016-07-09T06:55:44.152Z,64.79
2016-07-09T06:56:44.155Z,65.37
2016-07-09T06:57:44.155Z,64.98
2016-07-09T06:58:44.155Z,64.79
2016-07-09T06:59:44.156Z,65.08
2016-07-09T07:00:44.153Z,65.72
2016-07-09T07:01:44.376Z,65.24
2016-07-09T07:02:44.162Z,65.72
2016-07-09T07:03:44.159Z,66.01
2016-07-09T07:04:44.163Z,66.2
2016-07-09T07:05:44.164Z,67.46
2016-07-09T07:06:44.165Z,68.43
2016-07-09T07:07:44.166Z,69.35
2016-07-09T07:08:44.381Z,70.38
2016-07-09T07:09:44.165Z,71.41
2016-07-09T07:10:44.170Z,72.91
2016-07-09T07:11:44.166Z,73.26
2016-07-09T07:12:44.167Z,75.05
2016-07-09T07:13:44.168Z,75.54
2016-07-09T07:14:44.167Z,76.17
2016-07-09T07:15:44.177Z,76.75
2016-07-09T07:16:44.366Z,78
2016-07-09T07:17:44.165Z,77.81
2016-07-09T07:18:44.365Z,78.28
2016-07-09T07:19:44.162Z,78.44
2016-07-09T07:20:44.167Z,78.83
2016-07-09T07:21:44.161Z,78.83
2016-07-09T07:22:44.156Z,78.92
2016-07-09T07:23:44.158Z,79.5
2016-07-09T07:24:44.156Z,79.3
2016-07-09T07:25:44.152Z,79.6
2016-07-09T07:26:44.146Z,79.79
2016-07-09T07:27:44.153Z,80.07
2016-07-09T07:28:44.152Z,80.46
2016-07-09T07:29:44.149Z,80.75
2016-07-09T07:30:44.148Z,80.36
2016-07-09T07:31:44.238Z,80.46
2016-07-09T07:32:44.141Z,81.09
2016-07-09T07:33:44.137Z,80.9
2016-07-09T07:34:44.167Z,80.94
2016-07-09T07:35:44.134Z,81.52
2016-07-09T07:36:44.133Z,81.71
2016-07-09T07:37:44.134Z,81.71
2016-07-09T07:38:44.492Z,81.57
2016-07-09T07:39:44.130Z,81.57
2016-07-09T07:40:44.126Z,81.38
2016-07-09T07:41:44.119Z,81.48
2016-07-09T07:42:44.120Z,81.38
2016-07-09T07:43:44.125Z,81.57
2016-07-09T07:44:44.113Z,81.48
2016-07-09T07:45:44.117Z,81.57
2016-07-09T07:46:44.112Z,81.42
2016-07-09T07:47:44.106Z,81.61
2016-07-09T07:48:44.547Z,81.61
2016-07-09T07:49:44.098Z,81.61
2016-07-09T07:50:44.100Z,81.81
2016-07-09T07:51:44.090Z,81.71
2016-07-09T07:52:44.093Z,81.61
2016-07-09T07:53:44.091Z,81.38
2016-07-09T07:54:44.086Z,81.76
2016-07-09T07:55:44.084Z,81.71
2016-07-09T07:56:44.085Z,81.81
2016-07-09T07:57:44.079Z,82.29
2016-07-09T07:58:44.078Z,81.81
2016-07-09T07:59:44.081Z,81.52
2016-07-09T08:00:44.072Z,81.42
2016-07-09T08:01:44.263Z,81.23
2016-07-09T08:02:44.065Z,81.42
2016-07-09T08:03:44.059Z,81.13
2016-07-09T08:04:44.062Z,81.42
2016-07-09T08:05:44.256Z,81.52
2016-07-09T08:07:00.998Z,81.13
2016-07-09T08:07:50.154Z,80.94
2016-07-09T08:08:57.281Z,81.04
2016-07-09T08:10:02.449Z,80.94
2016-07-09T08:10:52.886Z,81.13
2016-07-09T08:12:00.528Z,81.04
2016-07-09T08:12:45.648Z,80.94
2016-07-09T08:13:44.026Z,80.94
2016-07-09T08:14:44.032Z,81.04
2016-07-09T08:15:44.091Z,80.55
2016-07-09T08:16:44.026Z,81.04
2016-07-09T08:17:44.024Z,81.13
2016-07-09T08:18:45.185Z,81.13
2016-07-09T08:19:44.011Z,80.94
2016-07-09T08:20:44.006Z,81.13
2016-07-09T08:21:44.007Z,80.27
2016-07-09T08:22:44.015Z,80.55
2016-07-09T08:23:44.060Z,80.36
2016-07-09T08:24:44.236Z,80.65
2016-07-09T08:25:43.994Z,80.65
2016-07-09T08:26:43.996Z,80.07
2016-07-09T08:27:43.987Z,79.69
2016-07-09T08:28:43.995Z,79.69
2016-07-09T08:29:43.983Z,79.88
2016-07-09T08:30:43.980Z,79.88
2016-07-09T08:31:43.976Z,80.07
2016-07-09T08:32:43.971Z,79.69
2016-07-09T08:33:43.967Z,79.98
2016-07-09T08:34:43.965Z,79.88
2016-07-09T08:35:43.964Z,79.73
2016-07-09T08:36:44.159Z,79.63
2016-07-09T08:37:43.958Z,79.79
2016-07-09T08:38:43.951Z,79.98
2016-07-09T08:39:43.948Z,80.02
2016-07-09T08:40:43.948Z,80.3
2016-07-09T08:41:43.946Z,79.5
2016-07-09T08:42:44.144Z,79.44
2016-07-09T08:43:44.484Z,79.53
2016-07-09T08:44:43.931Z,79.5
2016-07-09T08:45:43.934Z,79.69
2016-07-09T08:46:43.952Z,79.44
2016-07-09T08:47:43.938Z,79.25
2016-07-09T08:48:43.922Z,79.63
2016-07-09T08:49:43.919Z,79.15
2016-07-09T08:50:43.910Z,80.3
2016-07-09T08:51:43.910Z,79.44
2016-07-09T08:52:43.992Z,79.63
2016-07-09T08:53:43.908Z,79.53
2016-07-09T08:54:44.096Z,79.05
2016-07-09T08:55:44.099Z,78.96
2016-07-09T08:56:43.895Z,79.05
2016-07-09T08:57:43.903Z,78.96
2016-07-09T08:58:43.891Z,79.15
2016-07-09T08:59:43.886Z,78.86
2016-07-09T09:00:43.888Z,78.48
2016-07-09T09:01:43.882Z,78.67
2016-07-09T09:02:43.882Z,78.58
2016-07-09T09:03:43.874Z,78.86
2016-07-09T09:04:43.869Z,78.38
2016-07-09T09:05:43.869Z,78.38
2016-07-09T09:06:43.867Z,78.77
2016-07-09T09:07:43.864Z,78.77
2016-07-09T09:08:45.887Z,78.96
2016-07-09T09:09:43.859Z,78.96
2016-07-09T09:10:43.854Z,79.05
2016-07-09T09:11:43.853Z,78.38
2016-07-09T09:12:43.848Z,78
2016-07-09T09:13:43.844Z,77.9
2016-07-09T09:14:43.843Z,77.61
2016-07-09T09:15:44.039Z,77.81
2016-07-09T09:16:43.834Z,77.42
2016-07-09T09:17:43.830Z,77.04
2016-07-09T09:18:43.828Z,76.94
2016-07-09T09:19:43.826Z,76.36
2016-07-09T09:20:43.819Z,76.46
2016-07-09T09:21:43.819Z,75.88
2016-07-09T09:22:43.818Z,75.98
2016-07-09T09:23:43.819Z,75.98
2016-07-09T09:24:43.814Z,76.46
2016-07-09T09:25:43.811Z,76.59
2016-07-09T09:26:43.812Z,76.36
2016-07-09T09:27:43.805Z,76.26
2016-07-09T09:28:43.803Z,76.56
2016-07-09T09:29:43.799Z,75.79
2016-07-09T09:30:43.796Z,75.79
2016-07-09T09:31:43.879Z,76.01
2016-07-09T09:32:43.788Z,76.01
2016-07-09T09:33:43.789Z,76.21
2016-07-09T09:34:43.802Z,75.54
2016-07-09T09:35:43.778Z,75.73
2016-07-09T09:36:43.776Z,75.54
2016-07-09T09:37:43.772Z,75.69
2016-07-09T09:38:43.770Z,76.01
2016-07-09T09:39:43.771Z,76.31
2016-07-09T09:40:45.072Z,76.01
2016-07-09T09:41:43.769Z,76.11
2016-07-09T09:42:43.761Z,75.92
2016-07-09T09:43:43.757Z,75.63
2016-07-09T09:44:43.769Z,75.54
2016-07-09T09:45:43.757Z,75.73
2016-07-09T09:46:43.747Z,75.54
2016-07-09T09:47:43.790Z,75.34
2016-07-09T09:48:43.740Z,75.44
2016-07-09T09:49:43.739Z,75.44
2016-07-09T09:50:43.743Z,75.34
2016-07-09T09:51:43.732Z,75.82
2016-07-09T09:52:43.733Z,76.11
2016-07-09T09:53:43.733Z,75.44
2016-07-09T09:54:43.727Z,75.54
2016-07-09T09:55:43.723Z,75.73
2016-07-09T09:56:43.720Z,75.73
2016-07-09T09:57:43.717Z,75.34
2016-07-09T09:58:43.921Z,76.01
2016-07-09T09:59:43.711Z,75.44
2016-07-09T10:00:43.709Z,75.44
2016-07-09T10:01:43.704Z,75.73
2016-07-09T10:02:43.702Z,75.54
2016-07-09T10:03:43.699Z,75.73
2016-07-09T10:04:45.051Z,75.63
2016-07-09T10:05:43.696Z,75.54
2016-07-09T10:06:43.691Z,75.15
2016-07-09T10:07:43.685Z,74.86
2016-07-09T10:08:43.686Z,74.38
2016-07-09T10:09:43.681Z,74.48
2016-07-09T10:10:43.678Z,74.09
2016-07-09T10:11:43.678Z,75.44
2016-07-09T10:12:43.675Z,74.96
2016-07-09T10:13:43.673Z,73.36
2016-07-09T10:14:43.680Z,72.43
2016-07-09T10:15:43.667Z,71.56
2016-07-09T10:16:43.667Z,71.02
2016-07-09T10:17:43.663Z,70.35
2016-07-09T10:18:43.662Z,69.61
2016-07-09T10:19:43.659Z,68.65
2016-07-09T10:20:43.655Z,68.74
2016-07-09T10:21:43.796Z,68.19
2016-07-09T10:22:43.650Z,67.71
2016-07-09T10:23:43.649Z,67.23
2016-07-09T10:24:43.651Z,67.04
2016-07-09T10:25:43.647Z,66.78
2016-07-09T10:26:43.664Z,66.69
2016-07-09T10:27:43.639Z,66.78
2016-07-09T10:28:43.645Z,66.4
2016-07-09T10:29:43.637Z,66.97
2016-07-09T10:30:43.637Z,66.69
2016-07-09T10:31:43.660Z,66.91
2016-07-09T10:32:43.633Z,67.01
2016-07-09T10:33:43.636Z,66.33
2016-07-09T10:34:43.636Z,66.53
2016-07-09T10:35:43.632Z,66.53
2016-07-09T10:36:43.633Z,66.14
2016-07-09T10:37:43.635Z,65.78
2016-07-09T10:38:43.638Z,66.85
2016-07-09T10:39:43.632Z,66.56
2016-07-09T10:40:43.631Z,66.56
2016-07-09T10:41:43.631Z,66.85
2016-07-09T10:42:43.650Z,65.88
2016-07-09T10:43:43.630Z,65.69
2016-07-09T10:44:43.831Z,65.3
2016-07-09T10:45:43.633Z,64.53
2016-07-09T10:46:43.631Z,64.56
2016-07-09T10:47:43.632Z,64.63
2016-07-09T10:48:43.628Z,65.34
2016-07-09T10:49:43.636Z,65.43
2016-07-09T10:50:43.639Z,64.85
2016-07-09T10:51:43.632Z,65.43
2016-07-09T10:52:43.633Z,64.76
2016-07-09T10:53:43.640Z,65.05
2016-07-09T10:54:43.632Z,63.89
2016-07-09T10:55:43.635Z,64.66
2016-07-09T10:56:43.638Z,64.66
2016-07-09T10:57:43.638Z,63.98
2016-07-09T10:58:43.637Z,63.14
2016-07-09T10:59:43.645Z,63.05
2016-07-09T11:00:43.640Z,63.05
2016-07-09T11:01:43.641Z,62.95
2016-07-09T11:02:43.854Z,63.05
2016-07-09T11:03:43.641Z,62.66
2016-07-09T11:04:54.290Z,62.37
2016-07-09T11:05:57.984Z,61.89
2016-07-09T11:06:52.776Z,62.3
2016-07-09T11:07:43.848Z,62.37
2016-07-09T11:08:43.642Z,61.92
2016-07-09T11:09:43.645Z,62.21
2016-07-09T11:10:43.651Z,61.53
2016-07-09T11:11:43.647Z,61.63
2016-07-09T11:12:43.854Z,61.53
2016-07-09T11:13:43.655Z,61.33
2016-07-09T11:14:43.654Z,61.24
2016-07-09T11:15:43.655Z,61.33
2016-07-09T11:16:43.658Z,61.33
2016-07-09T11:17:43.655Z,61.24
2016-07-09T11:18:43.862Z,61.82
2016-07-09T11:19:43.662Z,61.33
2016-07-09T11:20:43.660Z,61.08
2016-07-09T11:21:43.666Z,60.78
2016-07-09T11:22:43.662Z,60.69
2016-07-09T11:23:43.670Z,60.78
2016-07-09T11:24:43.671Z,60.59
2016-07-09T11:25:43.667Z,60.59
2016-07-09T11:26:43.675Z,60.69
2016-07-09T11:27:43.673Z,60.88
2016-07-09T11:28:43.674Z,60.88
2016-07-09T11:29:43.680Z,60.59
2016-07-09T11:30:43.679Z,60.43
2016-07-09T11:31:43.680Z,60.43
2016-07-09T11:32:43.684Z,60.43
2016-07-09T11:33:43.686Z,60.24
2016-07-09T11:34:43.686Z,60.04
2016-07-09T11:35:43.691Z,60.24
2016-07-09T11:36:43.691Z,60.33
2016-07-09T11:37:43.695Z,60.43
2016-07-09T11:38:43.696Z,60.33
2016-07-09T11:39:43.696Z,59.94
2016-07-09T11:40:43.693Z,60.24
2016-07-09T11:41:43.696Z,60.24
2016-07-09T11:42:43.696Z,60.04
2016-07-09T11:43:43.700Z,60.14
2016-07-09T11:44:43.702Z,60.04
2016-07-09T11:45:43.707Z,59.94
2016-07-09T11:46:43.709Z,59.75
2016-07-09T11:47:43.709Z,59.75
2016-07-09T11:48:43.711Z,59.75
2016-07-09T11:49:43.712Z,59.94
2016-07-09T11:50:43.917Z,59.97
2016-07-09T11:51:43.714Z,59.78
2016-07-09T11:52:43.718Z,59.88
2016-07-09T11:53:43.729Z,59.49
2016-07-09T11:54:43.726Z,59.59
2016-07-09T11:55:43.730Z,59.59
2016-07-09T11:56:43.727Z,59.49
2016-07-09T11:57:43.731Z,59.59
2016-07-09T11:58:43.734Z,59.39
2016-07-09T11:59:43.734Z,59.59
2016-07-09T12:00:47.636Z,59.39
2016-07-09T12:01:45.036Z,59.39
2016-07-09T12:02:45.202Z,59.3
2016-07-09T12:03:45.166Z,59.3
2016-07-09T12:04:46.568Z,59.2
2016-07-09T12:05:45.458Z,59.39
2016-07-09T12:06:45.483Z,59.49
2016-07-09T12:07:46.266Z,59.52
2016-07-09T12:08:46.311Z,59.33
2016-07-09T12:09:46.542Z,59.33
2016-07-09T12:10:43.967Z,59.42
2016-07-09T12:11:43.759Z,59.33
2016-07-09T12:12:43.770Z,59.33
2016-07-09T12:13:43.762Z,59.33
2016-07-09T12:14:43.970Z,59.42
2016-07-09T12:15:43.772Z,59.52
2016-07-09T12:16:43.769Z,59.42
2016-07-09T12:17:43.770Z,59.33
2016-07-09T12:18:43.780Z,59.33
2016-07-09T12:19:43.782Z,59.33
2016-07-09T12:20:43.985Z,59.03
2016-07-09T12:21:43.787Z,59.33
2016-07-09T12:22:43.790Z,59.13
2016-07-09T12:23:43.791Z,59.13
2016-07-09T12:24:43.798Z,59.23
2016-07-09T12:25:43.796Z,59.13
2016-07-09T12:26:43.802Z,59.13
2016-07-09T12:27:43.798Z,59.13
2016-07-09T12:28:43.804Z,59.13
2016-07-09T12:29:43.809Z,59.13
2016-07-09T12:30:43.806Z,59.33
2016-07-09T12:31:43.813Z,59.52
2016-07-09T12:32:43.818Z,59.52
2016-07-09T12:33:43.817Z,59.61
2016-07-09T12:34:43.825Z,59.61
2016-07-09T12:35:43.822Z,59.61
2016-07-09T12:36:43.822Z,59.61
2016-07-09T12:37:43.836Z,59.52
2016-07-09T12:38:43.849Z,59.52
2016-07-09T12:39:43.836Z,59.23
2016-07-09T12:40:43.841Z,59.23
2016-07-09T12:41:43.844Z,59.33
2016-07-09T12:42:43.845Z,59.23
2016-07-09T12:43:43.849Z,59.33
2016-07-09T12:44:43.850Z,58.94
2016-07-09T12:45:43.851Z,58.16
2016-07-09T12:46:43.854Z,58.26
2016-07-09T12:47:43.859Z,58.26
2016-07-09T12:48:43.860Z,58.06
2016-07-09T12:49:43.863Z,57.97
2016-07-09T12:50:43.866Z,57.87
2016-07-09T12:51:43.869Z,58.16
2016-07-09T12:52:43.871Z,58.06
2016-07-09T12:53:43.880Z,57.9
2016-07-09T12:54:43.892Z,58.19